Time;durP1;ratioP1;P1;durP2;ratioP2;P2;SDS_P1;SDS_P2;PMS_P1;PMS_P2;Temp;Humidity;BMP_temperature;BMP_pressure;BME280_temperature;BME280_humidity;BME280_pressure;Samples;Min_cycle;Max_cycle;Signal;HPM_P1;HPM_P2
2023/02/05 00:01:32;;;;;;;;;2.00;1.00;;;;;9.78;100.00;103767.84;4988708;28;46061;-84
2023/02/05 00:03:57;;;;;;;;;2.00;0.50;;;;;9.76;100.00;103760.00;5017479;28;45361;-83
2023/02/05 00:06:23;;;;;;;;;2.25;1.00;;;;;9.80;100.00;103766.16;4975208;28;45273;-83
2023/02/05 00:08:48;;;;;;;;;3.00;0.00;;;;;9.84;100.00;103765.38;4975208;28;45345;-83
2023/02/05 00:11:13;;;;;;;;;1.25;0.00;;;;;9.80;100.00;103754.00;4975026;28;46028;-83
2023/02/05 00:13:40;;;;;;;;;1.00;1.00;;;;;9.81;100.00;103757.50;4974178;28;63580;-83
2023/02/05 00:16:07;;;;;;;;;3.50;2.00;;;;;9.81;100.00;103760.13;5042245;28;45355;-83
2023/02/05 00:18:33;;;;;;;;;1.50;1.00;;;;;9.83;100.00;103756.69;5057468;27;45336;-84
2023/02/05 00:20:58;;;;;;;;;2.50;0.75;;;;;9.84;100.00;103760.16;5076808;28;65120;-83
2023/02/05 00:23:23;;;;;;;;;1.00;1.00;;;;;9.83;100.00;103761.91;5059614;27;45360;-83
2023/02/05 00:25:49;;;;;;;;;1.25;0.50;;;;;9.84;100.00;103757.56;5042054;28;64386;-83
2023/02/05 00:28:14;;;;;;;;;0.00;0.00;;;;;9.85;100.00;103762.81;5041769;28;59725;-83
2023/02/05 00:30:40;;;;;;;;;1.25;1.00;;;;;9.86;100.00;103756.78;5076881;27;62256;-83
2023/02/05 00:33:05;;;;;;;;;1.50;0.00;;;;;9.86;100.00;103745.47;5059271;28;45347;-85
2023/02/05 00:35:31;;;;;;;;;1.00;1.00;;;;;9.84;100.00;103753.25;5057890;27;45367;-83
2023/02/05 00:37:56;;;;;;;;;1.00;0.25;;;;;9.84;100.00;103748.06;5097839;27;49367;-84
2023/02/05 00:40:21;;;;;;;;;0.75;0.00;;;;;9.84;100.00;103750.66;5097779;27;54076;-84
2023/02/05 00:42:47;;;;;;;;;0.50;0.00;;;;;9.81;100.00;103745.38;5097147;27;54020;-84
2023/02/05 00:45:12;;;;;;;;;1.25;0.50;;;;;9.80;100.00;103742.72;5063192;27;45429;-84
2023/02/05 00:47:37;;;;;;;;;0.00;0.00;;;;;9.81;100.00;103749.72;5097361;27;60137;-83
2023/02/05 00:50:03;;;;;;;;;1.75;1.00;;;;;9.83;100.00;103745.41;5097518;27;47386;-84
2023/02/05 00:52:28;;;;;;;;;1.00;1.00;;;;;9.81;100.00;103750.56;5079593;27;45439;-84
2023/02/05 00:54:54;;;;;;;;;1.25;1.00;;;;;9.80;100.00;103750.53;5097253;27;45291;-84
2023/02/05 00:57:23;;;;;;;;;1.50;0.50;;;;;9.73;100.00;103744.31;5095877;27;48250;-84
2023/02/05 00:59:49;;;;;;;;;2.50;1.50;;;;;9.72;100.00;103739.97;5079090;27;47155;-84
2023/02/05 01:02:15;;;;;;;;;1.50;0.00;;;;;9.73;100.00;103735.63;5097590;27;45253;-84
2023/02/05 01:04:40;;;;;;;;;1.00;1.00;;;;;9.74;100.00;103730.47;5097804;27;45376;-84
2023/02/05 01:07:05;;;;;;;;;2.00;0.25;;;;;9.76;100.00;103720.97;5097139;27;55478;-84
2023/02/05 01:09:31;;;;;;;;;0.75;0.75;;;;;9.78;100.00;103719.28;5078959;27;49411;-84
2023/02/05 01:11:56;;;;;;;;;0.00;0.00;;;;;9.79;100.00;103710.66;5078035;27;66293;-83
2023/02/05 01:14:21;;;;;;;;;1.00;1.00;;;;;9.82;100.00;103718.50;5078626;27;50367;-84
2023/02/05 01:16:46;;;;;;;;;1.75;1.00;;;;;9.86;100.00;103711.63;5078389;27;54094;-84
2023/02/05 01:19:12;;;;;;;;;2.00;0.50;;;;;9.88;100.00;103708.25;5097081;27;45276;-84
2023/02/05 01:21:37;;;;;;;;;1.75;0.00;;;;;9.91;100.00;103714.34;5078921;27;45702;-83
2023/02/05 01:24:03;;;;;;;;;1.25;1.00;;;;;9.92;100.00;103709.19;5078937;27;45302;-84
2023/02/05 01:26:28;;;;;;;;;1.00;1.00;;;;;9.93;100.00;103718.72;5097006;27;45464;-83
2023/02/05 01:28:53;;;;;;;;;2.50;2.50;;;;;9.94;100.00;103724.84;5095608;27;46862;-83
2023/02/05 01:31:20;;;;;;;;;1.00;1.00;;;;;9.93;100.00;103720.47;5096221;27;63930;-83
2023/02/05 01:33:46;;;;;;;;;2.25;1.00;;;;;9.89;100.00;103712.59;5078938;27;45240;-84
2023/02/05 01:36:11;;;;;;;;;2.00;1.00;;;;;9.86;100.00;103716.84;5078329;27;57656;-83
2023/02/05 01:38:36;;;;;;;;;6.00;2.00;;;;;9.83;100.00;103709.00;5078440;27;45345;-84
2023/02/05 01:41:02;;;;;;;;;2.00;1.00;;;;;9.83;100.00;103714.19;5096144;27;57646;-83
2023/02/05 01:43:27;;;;;;;;;2.00;1.00;;;;;9.84;100.00;103709.03;5077987;27;59364;-83
2023/02/05 01:46:15;;;;;;;;;1.75;0.75;;;;;9.85;100.00;103708.16;5078722;27;45369;-84
2023/02/05 01:48:43;;;;;;;;;1.00;1.00;;;;;9.86;100.00;103707.34;5061456;27;46866;-84
2023/02/05 01:51:10;;;;;;;;;1.00;1.00;;;;;9.91;100.00;103706.56;5078425;27;45627;-83
2023/02/05 01:53:37;;;;;;;;;1.25;0.50;;;;;9.91;100.00;103706.56;5078768;27;45605;-83
2023/02/05 01:56:07;;;;;;;;;2.00;1.00;;;;;9.86;100.00;103693.44;5078178;27;45406;-84
2023/02/05 01:58:39;;;;;;;;;1.00;1.00;;;;;9.84;100.00;103690.81;5078264;27;46190;-83
2023/02/05 02:01:04;;;;;;;;;1.00;1.00;;;;;9.82;100.00;103692.47;5078336;27;45747;-83
2023/02/05 02:03:30;;;;;;;;;1.50;1.00;;;;;9.81;100.00;103680.34;5078228;27;45361;-83
2023/02/05 02:05:56;;;;;;;;;1.00;1.00;;;;;9.81;100.00;103682.06;5096561;27;45561;-83
2023/02/05 02:08:21;;;;;;;;;3.50;1.00;;;;;9.82;100.00;103684.69;5096464;27;45343;-83
2023/02/05 02:10:48;;;;;;;;;2.75;1.00;;;;;9.80;100.00;103680.28;5077949;27;45769;-83
2023/02/05 02:13:13;;;;;;;;;0.50;0.50;;;;;9.79;100.00;103678.56;5078329;27;45288;-83
2023/02/05 02:15:39;;;;;;;;;2.75;1.00;;;;;9.79;100.00;103678.56;5095926;27;61469;-83
2023/02/05 02:21:20;;;;;;;;;1.25;0.00;;;;;9.76;100.00;103670.69;5080785;27;45705;-83
2023/02/05 02:24:09;;;;;;;;;2.25;1.00;;;;;9.73;100.00;103671.47;5096067;27;45379;-83
2023/02/05 02:27:01;;;;;;;;;2.00;0.00;;;;;9.71;100.00;103667.09;5078204;27;45489;-83
2023/02/05 02:29:49;;;;;;;;;1.50;1.00;;;;;9.64;100.00;103669.56;5078018;27;46806;-83
2023/02/05 02:32:20;;;;;;;;;1.00;0.00;;;;;9.62;100.00;103679.06;5083132;27;45415;-83
2023/02/05 02:34:55;;;;;;;;;1.00;1.00;;;;;9.59;100.00;103689.38;5048760;28;45261;-83
2023/02/05 02:37:33;;;;;;;;;1.75;1.75;;;;;9.57;100.00;103695.41;5037719;28;45439;-83
2023/02/05 02:40:28;;;;;;;;;2.75;1.00;;;;;9.53;100.00;103691.88;5037405;28;45717;-83
2023/02/05 02:43:04;;;;;;;;;7.25;1.25;;;;;9.51;100.00;103698.75;5032908;28;45353;-83
2023/02/05 02:45:33;;;;;;;;;2.25;1.00;;;;;9.49;100.00;103721.25;5033275;28;45387;-85
2023/02/05 02:47:59;;;;;;;;;4.75;1.00;;;;;9.45;100.00;103717.69;5016299;28;45550;-83
2023/02/05 02:50:34;;;;;;;;;2.00;2.00;;;;;9.42;100.00;103712.41;5032892;28;46425;-84
2023/02/05 02:53:09;;;;;;;;;3.00;1.00;;;;;9.42;100.00;103716.75;5048886;28;45643;-83
2023/02/05 02:55:37;;;;;;;;;2.00;2.00;;;;;9.38;100.00;103720.09;5036429;28;45472;-83
2023/02/05 02:58:06;;;;;;;;;3.50;3.00;;;;;9.38;100.00;103722.69;5036384;28;45383;-84
2023/02/05 03:00:32;;;;;;;;;3.00;3.00;;;;;9.36;100.00;103721.78;5035997;28;45826;-83
2023/02/05 03:03:01;;;;;;;;;5.00;2.00;;;;;9.32;100.00;103717.34;5036335;28;45363;-83
2023/02/05 03:05:27;;;;;;;;;2.00;2.00;;;;;9.32;100.00;103722.53;5036161;28;45409;-83
2023/02/05 03:08:01;;;;;;;;;2.50;2.50;;;;;9.28;100.00;103719.00;5035862;28;45349;-83
2023/02/05 03:10:45;;;;;;;;;2.00;1.00;;;;;9.23;100.00;103721.50;5036132;28;45349;-84
2023/02/05 03:13:11;;;;;;;;;2.25;1.00;;;;;9.22;100.00;103726.66;5036073;28;45646;-83
2023/02/05 03:15:41;;;;;;;;;1.25;1.25;;;;;9.20;100.00;103734.41;5052927;28;45629;-84
2023/02/05 03:18:06;;;;;;;;;4.00;2.00;;;;;9.19;100.00;103730.03;5004833;28;45494;-84
2023/02/05 03:20:40;;;;;;;;;2.00;2.00;;;;;9.19;100.00;103710.97;4954912;28;46514;-85
2023/02/05 03:23:05;;;;;;;;;2.25;1.00;;;;;9.15;100.00;103728.22;4954775;28;45412;-83
2023/02/05 03:25:31;;;;;;;;;3.00;2.00;;;;;9.15;100.00;103722.13;4954392;28;60100;-84
2023/02/05 03:27:57;;;;;;;;;4.75;2.75;;;;;9.10;100.00;103722.91;4956158;28;45253;-83
2023/02/05 03:30:27;;;;;;;;;2.50;1.25;;;;;9.08;100.00;103719.41;4954788;28;46859;-83
2023/02/05 03:33:20;;;;;;;;;2.75;1.00;;;;;9.07;100.00;103725.41;4954748;28;45940;-83
2023/02/05 03:35:57;;;;;;;;;2.50;1.75;;;;;9.07;100.00;103716.75;4972749;28;45355;-83
2023/02/05 03:38:32;;;;;;;;;2.25;1.75;;;;;9.08;100.00;103713.31;4974338;28;45439;-83
2023/02/05 03:41:07;;;;;;;;;1.25;1.25;;;;;9.08;100.00;103716.81;4973998;28;47980;-84
2023/02/05 03:43:47;;;;;;;;;3.25;2.00;;;;;9.08;100.00;103708.09;4975510;28;45426;-83
2023/02/05 03:46:37;;;;;;;;;5.50;1.25;;;;;9.09;100.00;103712.47;4975670;28;45870;-83
2023/02/05 03:49:16;;;;;;;;;2.25;1.25;;;;;9.07;100.00;103722.81;4974259;28;45618;-84
2023/02/05 03:51:51;;;;;;;;;7.25;3.25;;;;;9.07;100.00;103715.03;4973469;28;46321;-83
2023/02/05 03:54:27;;;;;;;;;7.25;3.50;;;;;9.07;100.00;103719.34;4973911;28;45556;-83
2023/02/05 03:57:05;;;;;;;;;2.00;2.00;;;;;9.06;100.00;103715.88;4974210;28;45298;-84
2023/02/05 03:59:32;;;;;;;;;8.50;2.00;;;;;9.10;100.00;103716.81;4975336;28;45280;-83
2023/02/05 04:01:57;;;;;;;;;3.00;1.50;;;;;9.10;100.00;103709.91;4974043;28;46286;-83
2023/02/05 04:04:23;;;;;;;;;3.25;2.00;;;;;9.10;100.00;103715.13;4973823;28;45370;-84
2023/02/05 04:06:51;;;;;;;;;3.00;2.00;;;;;9.09;100.00;103709.88;4957365;28;45385;-83
2023/02/05 04:09:16;;;;;;;;;6.00;3.00;;;;;9.06;100.00;103717.59;4957635;28;45635;-83
2023/02/05 04:11:42;;;;;;;;;5.00;5.00;;;;;9.04;100.00;103714.06;4974844;28;45634;-83
2023/02/05 04:14:07;;;;;;;;;7.75;4.50;;;;;9.02;100.00;103718.34;4957556;28;45650;-83
2023/02/05 04:16:32;;;;;;;;;8.00;5.00;;;;;8.98;100.00;103720.00;4973039;28;63398;-84
2023/02/05 04:18:58;;;;;;;;;2.25;2.00;;;;;8.96;100.00;103715.59;5073955;28;62961;-83
2023/02/05 04:21:23;;;;;;;;;5.75;3.25;;;;;8.94;100.00;103714.69;5076622;27;69455;-83
2023/02/05 04:23:48;;;;;;;;;7.00;2.50;;;;;8.92;100.00;103717.25;5059052;28;59265;-83
2023/02/05 04:26:14;;;;;;;;;5.75;5.00;;;;;8.89;100.00;103736.22;5077770;28;45289;-83
2023/02/05 04:28:39;;;;;;;;;6.25;3.50;;;;;8.87;100.00;103734.44;5057841;28;60077;-83
2023/02/05 04:31:10;;;;;;;;;9.00;3.25;;;;;8.83;100.00;103743.84;5076801;28;64397;-83
2023/02/05 04:33:35;;;;;;;;;6.25;3.50;;;;;8.83;100.00;103730.88;5077270;27;45600;-83
2023/02/05 04:36:01;;;;;;;;;4.75;2.00;;;;;8.80;100.00;103735.09;5076421;28;63188;-83
2023/02/05 04:38:26;;;;;;;;;8.75;5.00;;;;;8.77;100.00;103732.44;5059615;28;45691;-83
2023/02/05 04:40:52;;;;;;;;;6.25;3.25;;;;;8.74;100.00;103743.63;5077343;28;46375;-83
2023/02/05 04:43:17;;;;;;;;;12.25;3.75;;;;;8.70;100.00;103733.97;5058606;28;56260;-83
2023/02/05 04:45:43;;;;;;;;;5.25;4.75;;;;;8.69;100.00;103730.53;5076619;28;59633;-84
2023/02/05 04:48:08;;;;;;;;;3.25;2.75;;;;;8.73;100.00;103741.88;5077190;27;50306;-83
2023/02/05 04:50:33;;;;;;;;;6.00;4.25;;;;;8.75;100.00;103737.59;5058204;28;63812;-83
2023/02/05 04:53:01;;;;;;;;;5.00;2.00;;;;;8.76;100.00;103744.53;5057984;27;67894;-83
2023/02/05 04:55:27;;;;;;;;;9.50;5.00;;;;;8.76;100.00;103748.84;5059265;28;45351;-83
2023/02/05 04:57:52;;;;;;;;;5.50;3.50;;;;;8.77;100.00;103741.09;5059292;28;45301;-84
2023/02/05 05:00:17;;;;;;;;;4.25;4.25;;;;;8.78;100.00;103739.38;5076516;28;63347;-83
2023/02/05 05:02:43;;;;;;;;;5.00;2.50;;;;;8.77;100.00;103745.44;5077097;27;45311;-83
2023/02/05 05:05:08;;;;;;;;;9.75;5.50;;;;;8.77;100.00;103746.31;5058734;28;45430;-83
2023/02/05 05:07:33;;;;;;;;;9.75;5.00;;;;;8.78;100.00;103744.56;5077270;27;45348;-83
2023/02/05 05:09:59;;;;;;;;;5.00;2.00;;;;;8.78;100.00;103741.97;5076682;28;46210;-83
2023/02/05 05:12:24;;;;;;;;;7.75;3.25;;;;;8.76;100.00;103728.94;5076397;28;64473;-84
2023/02/05 05:14:49;;;;;;;;;5.50;4.50;;;;;8.71;100.00;103735.72;5058169;28;60223;-83
2023/02/05 05:17:15;;;;;;;;;7.75;5.00;;;;;8.69;100.00;103747.78;5076106;27;62782;-84
2023/02/05 05:19:40;;;;;;;;;7.25;5.25;;;;;8.69;100.00;103750.41;5077286;27;46451;-83
2023/02/05 05:22:06;;;;;;;;;6.00;5.00;;;;;8.68;100.00;103739.13;5058718;28;45382;-84
2023/02/05 05:24:31;;;;;;;;;8.25;3.25;;;;;8.69;100.00;103751.28;5077046;27;45366;-83
2023/02/05 05:26:56;;;;;;;;;5.25;3.25;;;;;8.70;100.00;103752.16;5058647;28;45379;-84
2023/02/05 05:29:22;;;;;;;;;8.00;5.00;;;;;8.67;100.00;103752.06;5058164;28;47075;-83
2023/02/05 05:31:47;;;;;;;;;7.00;4.00;;;;;8.66;100.00;103756.41;5058056;28;57630;-84
2023/02/05 05:34:12;;;;;;;;;9.00;6.00;;;;;8.68;100.00;103761.63;5053840;28;45403;-84
2023/02/05 05:36:42;;;;;;;;;5.25;4.00;;;;;8.65;100.00;103767.59;5056511;28;45395;-83
2023/02/05 05:44:35;;;;;;;;;6.00;5.50;;;;;8.61;100.00;103772.69;5041044;28;45506;-83
2023/02/05 05:47:00;;;;;;;;;4.00;3.25;;;;;8.58;100.00;103775.19;5055485;28;57192;-82
2023/02/05 05:49:25;;;;;;;;;9.00;5.00;;;;;8.56;100.00;103771.66;5055259;28;63144;-83
2023/02/05 05:51:51;;;;;;;;;3.25;3.25;;;;;8.56;100.00;103763.88;5062423;28;58725;-83
2023/02/05 05:54:16;;;;;;;;;8.75;6.00;;;;;8.59;100.00;103780.44;5057755;28;55400;-83
2023/02/05 05:56:42;;;;;;;;;12.50;8.00;;;;;8.60;100.00;103774.41;5075762;27;61679;-83
2023/02/05 05:59:07;;;;;;;;;7.25;4.50;;;;;8.60;100.00;103777.00;5058049;28;46117;-83
2023/02/05 06:01:32;;;;;;;;;4.00;2.00;;;;;8.59;100.00;103777.84;5057076;28;65971;-83
2023/02/05 06:03:58;;;;;;;;;4.75;4.75;;;;;8.57;100.00;103766.53;5076335;28;45964;-83
2023/02/05 06:06:23;;;;;;;;;7.00;5.50;;;;;8.57;100.00;103771.72;5076310;27;45360;-84
2023/02/05 06:08:48;;;;;;;;;9.25;6.00;;;;;8.61;100.00;103767.50;5057308;28;64862;-83
2023/02/05 06:11:14;;;;;;;;;8.25;5.75;;;;;8.64;100.00;103777.97;5057775;28;50808;-83
2023/02/05 06:13:40;;;;;;;;;4.00;3.25;;;;;8.61;100.00;103770.97;5058022;28;45397;-83
2023/02/05 06:16:06;;;;;;;;;7.25;6.00;;;;;8.60;100.00;103769.22;5075677;28;45336;-83
2023/02/05 06:18:31;;;;;;;;;7.25;5.50;;;;;8.61;100.00;103768.38;4989679;28;45421;-83
2023/02/05 06:20:56;;;;;;;;;2.75;2.75;;;;;8.61;100.00;103764.91;4972722;28;59555;-84
2023/02/05 06:23:22;;;;;;;;;7.25;3.25;;;;;8.62;100.00;103769.28;4973010;28;51408;-83
2023/02/05 06:25:47;;;;;;;;;4.75;4.75;;;;;8.61;100.00;103762.31;4971480;28;62193;-83
2023/02/05 06:28:12;;;;;;;;;6.00;5.00;;;;;8.58;100.00;103768.31;4973266;28;47134;-83
2023/02/05 06:30:38;;;;;;;;;4.75;4.00;;;;;8.58;100.00;103765.69;4972932;28;45352;-83
2023/02/05 06:33:04;;;;;;;;;6.00;2.50;;;;;8.60;100.00;103757.94;4955132;28;63946;-83
2023/02/05 06:35:29;;;;;;;;;5.00;5.00;;;;;8.61;100.00;103759.69;4972163;28;45286;-83
2023/02/05 06:37:54;;;;;;;;;6.25;4.00;;;;;8.63;100.00;103764.09;4971888;28;47264;-83
2023/02/05 06:40:24;;;;;;;;;10.50;7.25;;;;;8.61;100.00;103757.09;4971883;28;45363;-83
2023/02/05 06:42:51;;;;;;;;;7.25;5.00;;;;;8.58;100.00;103757.00;4973020;28;45344;-83
2023/02/05 06:45:16;;;;;;;;;5.25;4.25;;;;;8.55;100.00;103747.44;4971754;28;45456;-83
2023/02/05 06:47:42;;;;;;;;;3.50;3.25;;;;;8.56;100.00;103741.38;4971838;28;46165;-83
2023/02/05 06:50:07;;;;;;;;;8.25;5.00;;;;;8.55;100.00;103749.16;4972842;28;45326;-83
2023/02/05 06:52:33;;;;;;;;;6.75;4.75;;;;;8.51;100.00;103753.38;4987453;28;45339;-83
2023/02/05 06:54:58;;;;;;;;;5.00;3.50;;;;;8.47;100.00;103748.94;4994806;28;62060;-83
2023/02/05 06:57:23;;;;;;;;;7.50;5.00;;;;;8.46;100.00;103761.03;4993662;28;63441;-83
2023/02/05 06:59:49;;;;;;;;;9.00;6.50;;;;;8.44;100.00;103777.41;4995209;27;45355;-83
2023/02/05 07:02:14;;;;;;;;;8.50;5.75;;;;;8.45;100.00;103781.75;4995037;28;57347;-83
2023/02/05 07:04:40;;;;;;;;;12.75;5.25;;;;;8.46;100.00;103774.00;4994373;28;45365;-84
2023/02/05 07:07:05;;;;;;;;;5.00;5.00;;;;;8.46;100.00;103763.63;4994085;28;46615;-83
2023/02/05 07:09:30;;;;;;;;;7.75;6.25;;;;;8.46;100.00;103763.63;4993417;28;65672;-83
2023/02/05 07:11:56;;;;;;;;;11.25;7.00;;;;;8.42;100.00;103766.97;4995604;27;45326;-83
2023/02/05 07:14:21;;;;;;;;;2.00;1.75;;;;;8.40;100.00;103766.03;4994790;28;54182;-83
2023/02/05 07:16:46;;;;;;;;;8.50;6.75;;;;;8.34;100.00;103765.84;5016436;27;64865;-83
2023/02/05 07:19:12;;;;;;;;;9.50;5.00;;;;;8.28;100.00;103773.44;5080336;27;60642;-83
2023/02/05 07:21:37;;;;;;;;;8.50;6.00;;;;;8.27;100.00;103772.56;5080211;27;61336;-83
2023/02/05 07:24:02;;;;;;;;;7.00;5.00;;;;;8.25;100.00;103769.06;5098469;27;64975;-83
2023/02/05 07:26:28;;;;;;;;;7.50;7.50;;;;;8.24;100.00;103776.78;5099125;27;46008;-83
2023/02/05 07:28:53;;;;;;;;;5.50;5.00;;;;;8.22;100.00;103788.84;5098178;27;64486;-83
2023/02/05 07:31:19;;;;;;;;;6.00;6.00;;;;;8.27;100.00;103782.94;5080215;27;61917;-83
2023/02/05 07:33:45;;;;;;;;;9.00;6.00;;;;;8.35;100.00;103788.34;5098467;27;45380;-83
2023/02/05 07:36:15;;;;;;;;;5.00;5.00;;;;;8.40;100.00;103788.50;5060395;28;45495;-82
2023/02/05 07:38:41;;;;;;;;;8.00;6.75;;;;;8.39;100.00;103792.81;5078659;27;45787;-82
2023/02/05 07:41:08;;;;;;;;;5.75;5.75;;;;;8.40;100.00;103793.69;5078671;28;45335;-80
2023/02/05 07:43:34;;;;;;;;;9.50;5.00;;;;;8.41;100.00;103798.03;5067556;28;45542;-82
2023/02/05 07:46:02;;;;;;;;;5.00;5.00;;;;;8.44;100.00;103804.25;5060345;28;46411;-80
2023/02/05 07:48:27;;;;;;;;;7.75;6.00;;;;;8.48;100.00;103792.22;5078156;28;45803;-79
2023/02/05 07:50:53;;;;;;;;;8.00;5.50;;;;;8.52;100.00;103792.38;5077737;27;45366;-79
2023/02/05 07:53:18;;;;;;;;;8.00;2.75;;;;;8.57;100.00;103787.28;5076659;27;67396;-80
2023/02/05 07:55:44;;;;;;;;;7.00;5.00;;;;;8.60;100.00;103805.56;5078119;27;45384;-79
2023/02/05 07:58:09;;;;;;;;;9.50;7.50;;;;;8.65;100.00;103801.38;5076653;27;67732;-79
2023/02/05 08:00:35;;;;;;;;;5.25;4.50;;;;;8.68;100.00;103809.25;5078435;27;45315;-79
2023/02/05 08:03:01;;;;;;;;;8.75;6.75;;;;;8.72;100.00;103818.00;5074402;28;45461;-80
2023/02/05 08:05:26;;;;;;;;;7.50;5.75;;;;;8.76;100.00;103824.16;5077470;27;46132;-80
2023/02/05 08:07:52;;;;;;;;;15.25;12.50;;;;;8.76;100.00;103825.03;5077476;27;45614;-79
2023/02/05 08:10:17;;;;;;;;;11.00;10.25;;;;;8.74;100.00;103818.94;5077599;28;45321;-80
2023/02/05 08:12:42;;;;;;;;;12.25;8.25;;;;;8.79;100.00;103826.88;5076790;28;56447;-80
2023/02/05 08:15:08;;;;;;;;;17.25;13.00;;;;;8.83;100.00;103826.09;5076423;27;68896;-80
2023/02/05 08:17:33;;;;;;;;;11.75;9.75;;;;;8.81;100.00;103826.06;5077563;28;45710;-80
2023/02/05 08:20:05;;;;;;;;;16.25;9.00;;;;;8.80;100.00;103819.09;5076770;28;45871;-81
2023/02/05 08:22:34;;;;;;;;;15.00;10.00;;;;;8.84;100.00;103831.34;5077843;27;45445;-81
2023/02/05 08:25:00;;;;;;;;;15.25;12.50;;;;;8.86;100.00;103836.59;5073870;28;45797;-82
2023/02/05 08:27:25;;;;;;;;;15.00;11.00;;;;;8.84;100.00;103830.44;5077289;27;45419;-82
2023/02/05 08:29:51;;;;;;;;;13.00;9.00;;;;;8.80;100.00;103839.88;5071437;27;47299;-80
2023/02/05 08:32:16;;;;;;;;;18.50;13.00;;;;;8.81;100.00;103853.75;5077260;28;45407;-82
2023/02/05 08:34:41;;;;;;;;;15.25;6.75;;;;;8.82;100.00;103837.31;5076069;28;60450;-83
2023/02/05 08:37:06;;;;;;;;;19.00;11.75;;;;;8.87;100.00;103846.13;5075673;27;51399;-82
2023/02/05 08:39:32;;;;;;;;;20.25;15.25;;;;;8.88;100.00;103840.13;5073125;28;58648;-83
2023/02/05 08:41:57;;;;;;;;;19.25;10.75;;;;;8.86;100.00;103842.66;5077066;28;45911;-82
2023/02/05 08:44:23;;;;;;;;;20.25;13.00;;;;;8.88;100.00;103838.38;5077185;27;45981;-82
2023/02/05 08:46:48;;;;;;;;;15.50;10.50;;;;;8.90;100.00;103848.81;5075959;27;45281;-82
2023/02/05 08:49:15;;;;;;;;;8.00;5.25;;;;;8.95;100.00;103852.41;5075299;28;64074;-82
2023/02/05 08:51:41;;;;;;;;;28.25;15.25;;;;;9.02;100.00;103858.66;5077107;27;45490;-82
2023/02/05 08:54:11;;;;;;;;;21.50;15.00;;;;;9.06;100.00;103864.00;5076974;27;45402;-82
2023/02/05 08:56:38;;;;;;;;;22.25;12.75;;;;;9.10;100.00;103863.25;5058487;27;45297;-82
2023/02/05 08:59:04;;;;;;;;;16.25;15.50;;;;;9.05;100.00;103862.22;5059225;28;45420;-82
2023/02/05 09:01:29;;;;;;;;;18.00;13.75;;;;;9.07;100.00;103857.09;5058909;28;45458;-82
2023/02/05 09:03:55;;;;;;;;;16.25;12.00;;;;;9.07;100.00;103855.34;5058913;28;46258;-81
2023/02/05 09:06:20;;;;;;;;;15.00;12.00;;;;;9.08;100.00;103853.63;5076049;28;69953;-81
2023/02/05 09:08:45;;;;;;;;;17.25;13.00;;;;;9.08;100.00;103853.63;5076357;28;54511;-82
2023/02/05 09:11:12;;;;;;;;;17.00;11.00;;;;;9.11;100.00;103861.50;5076653;27;45265;-81
2023/02/05 09:13:38;;;;;;;;;10.00;9.75;;;;;9.10;100.00;103858.03;5058239;28;46252;-82
2023/02/05 09:16:03;;;;;;;;;17.25;9.50;;;;;9.11;100.00;103859.78;5076353;27;45919;-82
2023/02/05 09:18:29;;;;;;;;;18.50;12.25;;;;;9.17;100.00;103864.28;5076699;28;45351;-81
2023/02/05 09:20:55;;;;;;;;;15.00;12.75;;;;;9.18;100.00;103859.97;5058759;28;45452;-82
2023/02/05 09:23:21;;;;;;;;;25.00;13.00;;;;;9.16;100.00;103861.66;5076584;27;46050;-82
2023/02/05 09:25:46;;;;;;;;;9.25;6.25;;;;;9.14;100.00;103860.72;5058274;28;45476;-82
2023/02/05 09:28:13;;;;;;;;;10.50;9.00;;;;;9.14;100.00;103853.81;5058607;28;45381;-82
2023/02/05 09:30:40;;;;;;;;;17.75;12.00;;;;;9.20;100.00;103858.28;5076625;28;45403;-82
2023/02/05 09:33:06;;;;;;;;;17.00;12.00;;;;;9.25;100.00;103861.91;5058314;28;46379;-82
2023/02/05 09:35:32;;;;;;;;;10.25;9.00;;;;;9.31;100.00;103872.47;5058179;28;45441;-82
2023/02/05 09:37:58;;;;;;;;;9.25;6.50;;;;;9.37;100.00;103869.13;5058651;28;45424;-82
2023/02/05 09:40:28;;;;;;;;;14.75;10.00;;;;;9.47;100.00;103873.72;5076275;28;45407;-82
2023/02/05 09:43:12;;;;;;;;;16.25;11.00;;;;;9.58;100.00;103877.47;5058163;27;46256;-82
2023/02/05 09:45:52;;;;;;;;;9.00;7.00;;;;;9.75;100.00;103879.63;5075210;28;45708;-82
2023/02/05 09:48:26;;;;;;;;;13.75;8.50;;;;;9.80;100.00;103891.03;5058351;28;45458;-82
2023/02/05 09:50:54;;;;;;;;;10.00;4.00;;;;;9.86;100.00;103891.16;5076378;27;45270;-82
2023/02/05 09:53:19;;;;;;;;;14.50;9.00;;;;;9.88;100.00;103884.31;5057345;28;45423;-82
2023/02/05 09:55:46;;;;;;;;;8.50;7.50;;;;;9.94;100.00;103884.44;5076133;28;45379;-82
2023/02/05 09:58:18;;;;;;;;;13.25;12.25;;;;;10.05;100.00;103885.56;5076426;28;45495;-83
2023/02/05 10:00:46;;;;;;;;;3.00;2.00;;;;;10.11;100.00;103878.75;5058144;28;45418;-82
2023/02/05 10:03:30;;;;;;;;;6.25;2.75;;;;;10.09;100.00;103883.94;5057970;28;45500;-82
2023/02/05 10:06:08;;;;;;;;;4.00;4.00;;;;;10.08;100.00;103885.66;5058067;28;45354;-82
2023/02/05 10:08:42;;;;;;;;;3.50;3.00;;;;;10.13;100.00;103892.69;5075926;28;45689;-82
2023/02/05 10:11:17;;;;;;;;;8.00;5.75;;;;;10.21;100.00;103886.78;5040987;28;45774;-82
2023/02/05 10:13:44;;;;;;;;;3.00;2.00;;;;;10.23;100.00;103885.13;5057840;27;46298;-82
2023/02/05 10:16:33;;;;;;;;;2.00;2.00;;;;;10.26;100.00;103892.13;5041022;28;45371;-81
2023/02/05 10:19:16;;;;;;;;;2.25;1.25;;;;;10.26;100.00;103900.81;4974502;28;45426;-82
2023/02/05 10:21:57;;;;;;;;;2.50;1.00;;;;;10.28;100.00;103906.06;4973678;28;45376;-82
2023/02/05 10:24:25;;;;;;;;;1.00;1.00;;;;;10.26;100.00;103903.41;4971951;28;46617;-82
2023/02/05 10:26:53;;;;;;;;;1.00;1.00;;;;;10.24;100.00;103894.69;4974457;28;45312;-82
2023/02/05 10:29:31;;;;;;;;;2.75;2.75;;;;;10.24;100.00;103902.50;4975320;28;45457;-82
2023/02/05 10:32:16;;;;;;;;;1.75;1.75;;;;;10.28;100.00;103904.31;4976138;28;45382;-83
2023/02/05 10:34:52;;;;;;;;;1.00;1.00;;;;;10.32;100.00;103918.31;4974823;28;46315;-82
2023/02/05 10:37:20;;;;;;;;;3.00;2.00;;;;;10.25;100.00;103935.50;4975932;28;45299;-81
2023/02/05 10:39:48;;;;;;;;;1.25;1.00;;;;;10.12;100.00;103946.44;4975153;28;45323;-82
2023/02/05 10:42:32;;;;;;;;;0.25;0.00;;;;;10.02;100.00;103950.56;4975152;28;45427;-82
2023/02/05 10:45:28;;;;;;;;;4.25;2.00;;;;;9.91;100.00;103954.63;4976016;28;46528;-82
2023/02/05 10:47:56;;;;;;;;;2.00;1.00;;;;;9.88;100.00;103965.84;4976067;28;45801;-82
2023/02/05 10:50:42;;;;;;;;;1.50;0.50;;;;;9.86;100.00;103943.22;4976183;27;45518;-82
2023/02/05 10:53:07;;;;;;;;;0.00;0.00;;;;;9.76;100.00;103923.88;4974346;28;45543;-83
2023/02/05 10:55:33;;;;;;;;;0.25;0.25;;;;;9.72;100.00;103914.25;4975042;28;73027;-84
2023/02/05 10:58:01;;;;;;;;;0.25;0.00;;;;;9.77;100.00;103922.16;4974632;28;65291;-83
2023/02/05 11:00:26;;;;;;;;;4.25;1.50;;;;;9.81;100.00;103908.41;4974840;28;45366;-83
2023/02/05 11:02:57;;;;;;;;;0.75;0.00;;;;;9.93;100.00;103920.84;4975075;28;67352;-83
2023/02/05 11:05:36;;;;;;;;;0.75;0.00;;;;;10.10;100.00;103922.13;4974342;28;47351;-80
2023/02/05 11:08:01;;;;;;;;;1.50;0.00;;;;;10.36;100.00;103916.66;4974550;28;45435;-82
2023/02/05 11:10:33;;;;;;;;;2.00;0.25;;;;;10.74;100.00;103907.09;4974784;28;45313;-82
2023/02/05 11:13:06;;;;;;;;;3.25;0.00;;;;;11.15;100.00;103911.41;4974564;28;45364;-82
2023/02/05 11:15:32;;;;;;;;;2.50;2.50;;;;;11.38;100.00;103894.44;4974518;28;46449;-82
2023/02/05 11:18:01;;;;;;;;;2.00;0.00;;;;;11.57;100.00;103913.91;5032507;28;45731;-82
2023/02/05 11:20:34;;;;;;;;;2.75;0.50;;;;;11.80;100.00;103913.44;5060487;28;45379;-83
2023/02/05 11:23:19;;;;;;;;;1.25;0.00;;;;;11.88;100.00;103922.25;5078610;27;45606;-83
2023/02/05 11:25:48;;;;;;;;;0.00;0.00;;;;;11.80;100.00;103929.09;5078645;27;46193;-82
2023/02/05 11:28:23;;;;;;;;;0.00;0.00;;;;;11.72;100.00;103904.56;5060646;28;45519;-83
2023/02/05 11:30:48;;;;;;;;;1.00;0.00;;;;;12.07;100.00;103899.09;5078669;28;45383;-83
2023/02/05 11:33:20;;;;;;;;;0.00;0.00;;;;;12.25;100.00;103904.59;5078501;28;45358;-83
2023/02/05 11:36:02;;;;;;;;;0.00;0.00;;;;;13.28;100.00;103892.81;5077929;27;46292;-83